UMMS

Minsk International Airport

Minsk, Belarus
TAF AMD UMMS 172202Z 1722/1818 28005MPS 4000 BR SCT004 TEMPO 1722/1804 0400 -SNRA -FZDZ FZFG BKN002 BECMG 1804/1805 36006G11MPS 3000 BCFG BR BKN004 TEMPO 1805/1818 1200 SHRASN BKN003 SCT010CB
Issued Valid From Valid To
Nov-17 @ 22:02 UTC
(10 minutes ago)
Nov-17 @ 22:00 UTC
(12 minutes ago)
Nov-18 @ 18:00 UTC
(in 20 hours)
Nov-17 @ 22:00 to Nov-18 @ 04:00
TAF AMD UMMS 172202Z 1722/1818 28005MPS 4000 BR SCT004
Wind Visibility Clouds Conditions
280° at 10 knots 4,007 meters
  • Scattered at 400' AGL
  • Mist
Temporary Nov-17 @ 22:00 to Nov-18 @ 04:00
TEMPO 1722/1804 0400 -SNRA -FZDZ FZFG BKN002
Visibility Clouds Conditions
402 meters
  • Broken at 200' AGL
  • Light Snow
  • Light Rain
  • Light Freezing
  • Light Drizzle
  • Freezing
  • Fog
Becoming Nov-18 @ 04:00 to Nov-18 @ 18:00
BECMG 1804/1805 36006G11MPS 3000 BCFG BR BKN004
Wind Visibility Clouds Conditions
360° at 12 knots
 Gusting to 21 knots
2,993 meters
  • Broken at 400' AGL
  • Patches of
  • Fog
  • Mist
Temporary Nov-18 @ 05:00 to Nov-18 @ 18:00
TEMPO 1805/1818 1200 SHRASN BKN003 SCT010CB
Visibility Clouds Conditions
1,207 meters
  • Broken at 300' AGL
  • Scattered at 1,000' AGL
  • Rain
  • Snow
TAF AMD UMMS 172202Z 1722/1818 28005MPS 4000 BR SCT004 TEMPO 1722/1804 0400 -SNRA -FZDZ FZFG BKN002 BECMG 1804/1805 36006G11MPS 3000 BCFG BR BKN004 TEMPO 1805/1818 1200 SHRASN BKN003 SCT010CB
Issued Nov-17 @ 22:02 UTC
(10 minutes ago)
Valid From Nov-17 @ 22:00 UTC
(12 minutes ago)
Valid To Nov-18 @ 18:00 UTC
(in 20 hours)
Nov-17 @ 22:00 - Nov-18 @ 04:00
Wind Visibility
280° at 10 knots 4,007 meters
Clouds
  • Scattered at 400' AGL
Conditions
  • Mist
Temporary Nov-17 @ 22:00 - Nov-18 @ 04:00
Clouds
  • Broken at 200' AGL
Conditions
  • Light Snow
  • Light Rain
  • Light Freezing
  • Light Drizzle
  • Freezing
  • Fog
Becoming Nov-18 @ 04:00 - Nov-18 @ 18:00
Wind Visibility
360° at 12 knots
 Gusting to 21 knots
2,993 meters
Clouds
  • Broken at 400' AGL
Conditions
  • Patches of
  • Fog
  • Mist
Temporary Nov-18 @ 05:00 - Nov-18 @ 18:00
Clouds
  • Broken at 300' AGL
  • Scattered at 1,000' AGL
Conditions
  • Rain
  • Snow